createdAt,value
2022-11-05T00:01:19.463Z,37.00
2022-11-05T00:04:06.256Z,37.90
2022-11-05T00:06:52.952Z,37.90
2022-11-05T00:09:29.860Z,39.50
2022-11-05T00:12:22.171Z,41.00
2022-11-05T00:15:08.705Z,43.70
2022-11-05T00:17:36.928Z,42.80
2022-11-05T00:20:06.506Z,45.30
2022-11-05T00:22:53.062Z,44.70
2022-11-05T00:25:22.157Z,48.50
2022-11-05T00:27:52.340Z,47.60
2022-11-05T00:30:24.286Z,44.90
2022-11-05T00:32:53.368Z,44.10
2022-11-05T00:35:22.602Z,47.20
2022-11-05T00:37:53.573Z,45.20
2022-11-05T00:40:21.423Z,45.70
2022-11-05T00:43:08.286Z,44.60
2022-11-05T00:48:24.749Z,40.00
2022-11-05T00:50:52.705Z,42.50
2022-11-05T00:53:20.695Z,44.20
2022-11-05T00:55:48.599Z,42.60
2022-11-05T00:58:19.055Z,40.90
2022-11-05T01:00:52.635Z,38.10
2022-11-05T01:03:24.469Z,40.20
2022-11-05T01:05:55.912Z,40.20
2022-11-05T01:08:26.805Z,36.40
2022-11-05T01:10:57.779Z,37.10
2022-11-05T01:13:30.257Z,35.60
2022-11-05T01:15:58.154Z,37.40
2022-11-05T01:18:26.066Z,36.70
2022-11-05T01:20:54.027Z,36.20
2022-11-05T01:23:22.212Z,37.40
2022-11-05T01:25:50.367Z,37.20
2022-11-05T01:28:18.309Z,36.10
2022-11-05T01:30:46.214Z,36.50
2022-11-05T01:33:14.347Z,36.10
2022-11-05T01:35:42.662Z,33.90
2022-11-05T01:38:10.641Z,35.60
2022-11-05T01:40:42.632Z,34.70
2022-11-05T01:43:16.070Z,36.10
2022-11-05T01:45:47.895Z,34.70
2022-11-05T01:48:23.976Z,36.00
2022-11-05T01:51:01.340Z,34.90
2022-11-05T01:53:49.926Z,35.30
2022-11-05T01:56:24.901Z,37.00
2022-11-05T01:58:57.956Z,36.30
2022-11-05T02:01:26.128Z,35.80
2022-11-05T02:03:59.801Z,34.20
2022-11-05T02:06:30.417Z,35.20
2022-11-05T02:09:13.405Z,34.10
2022-11-05T02:11:41.426Z,35.10
2022-11-05T02:14:09.453Z,35.70
2022-11-05T02:16:40.431Z,36.70
2022-11-05T02:19:23.453Z,36.20
2022-11-05T02:22:08.994Z,35.20
2022-11-05T02:24:45.927Z,34.80
2022-11-05T02:27:29.524Z,35.00
2022-11-05T02:30:03.654Z,36.80
2022-11-05T02:32:40.862Z,37.00
2022-11-05T02:35:35.206Z,37.50
2022-11-05T02:38:07.330Z,36.00
2022-11-05T02:40:54.185Z,36.50
2022-11-05T02:43:51.777Z,37.00
2022-11-05T02:49:13.388Z,39.60
2022-11-05T02:51:55.607Z,38.10
2022-11-05T02:54:35.359Z,37.40
2022-11-05T02:57:04.938Z,38.00
2022-11-05T02:59:32.854Z,37.80
2022-11-05T03:02:26.690Z,36.60
2022-11-05T03:04:54.890Z,38.70
2022-11-05T03:07:44.623Z,37.60
2022-11-05T03:10:43.330Z,38.10
2022-11-05T03:13:22.593Z,37.40
2022-11-05T03:15:55.713Z,34.50
2022-11-05T03:18:43.374Z,34.20
2022-11-05T03:21:37.657Z,32.60
2022-11-05T03:24:34.266Z,33.30
2022-11-05T03:27:13.568Z,32.80
2022-11-05T03:29:49.147Z,34.90
2022-11-05T03:32:20.744Z,33.30
2022-11-05T03:34:56.797Z,32.70
2022-11-05T03:37:28.704Z,31.10
2022-11-05T03:40:00.515Z,32.90
2022-11-05T03:42:34.673Z,32.30
2022-11-05T03:45:08.693Z,31.30
2022-11-05T03:47:41.177Z,31.00
2022-11-05T03:50:59.892Z,31.70
2022-11-05T03:53:32.298Z,30.80
2022-11-05T03:56:10.634Z,31.70
2022-11-05T03:58:44.204Z,32.20
2022-11-05T04:01:12.597Z,33.70
2022-11-05T04:03:40.495Z,32.10
2022-11-05T04:06:29.223Z,30.40
2022-11-05T04:09:15.854Z,31.30
2022-11-05T04:12:02.311Z,32.00
2022-11-05T04:14:31.163Z,31.50
2022-11-05T04:17:09.734Z,31.30
2022-11-05T04:20:01.980Z,32.60
2022-11-05T04:22:54.032Z,31.40
2022-11-05T04:25:22.839Z,32.80
2022-11-05T04:27:51.628Z,32.60
2022-11-05T04:30:20.590Z,32.10
2022-11-05T04:32:58.691Z,33.50
2022-11-05T04:35:28.987Z,33.60
2022-11-05T04:37:57.078Z,34.40
2022-11-05T04:40:25.944Z,34.10
2022-11-05T04:42:55.681Z,35.20
2022-11-05T04:45:25.445Z,35.70
2022-11-05T04:47:53.474Z,35.00
2022-11-05T04:50:21.912Z,33.60
2022-11-05T04:52:49.867Z,36.60
2022-11-05T04:55:18.033Z,36.70
2022-11-05T04:57:51.298Z,36.60
2022-11-05T05:00:20.891Z,36.80
2022-11-05T05:02:49.414Z,36.60
2022-11-05T05:05:17.779Z,38.10
2022-11-05T05:07:45.757Z,36.70
2022-11-05T05:10:13.634Z,37.40
2022-11-05T05:12:41.667Z,39.30
2022-11-05T05:15:09.723Z,36.50
2022-11-05T05:17:37.687Z,37.00
2022-11-05T05:20:24.502Z,37.00
2022-11-05T05:22:55.778Z,35.60
2022-11-05T05:25:23.851Z,36.20
2022-11-05T05:27:51.945Z,35.60
2022-11-05T05:30:19.869Z,32.50
2022-11-05T05:32:47.743Z,35.00
2022-11-05T05:35:16.040Z,33.90
2022-11-05T05:37:44.345Z,34.40
2022-11-05T05:40:12.244Z,33.30
2022-11-05T05:42:43.105Z,33.20
2022-11-05T05:45:12.792Z,32.10
2022-11-05T05:47:40.675Z,33.20
2022-11-05T05:50:08.681Z,33.50
2022-11-05T05:52:36.553Z,33.50
2022-11-05T05:55:04.854Z,33.90
2022-11-05T05:57:34.151Z,33.00
2022-11-05T06:00:02.145Z,32.80
2022-11-05T06:02:40.057Z,32.30
2022-11-05T06:05:08.407Z,32.70
2022-11-05T06:07:37.556Z,31.40
2022-11-05T06:10:07.238Z,31.70
2022-11-05T06:12:35.304Z,32.70
2022-11-05T06:15:03.986Z,31.20
2022-11-05T06:17:33.077Z,31.30
2022-11-05T06:20:01.041Z,31.10
2022-11-05T06:22:28.918Z,30.20
2022-11-05T06:24:56.754Z,31.50
2022-11-05T06:27:24.729Z,32.90
2022-11-05T06:29:52.561Z,33.00
2022-11-05T06:32:20.426Z,31.70
2022-11-05T06:34:48.544Z,31.80
2022-11-05T06:37:16.526Z,32.50
2022-11-05T06:39:44.686Z,33.00
2022-11-05T06:42:18.488Z,32.50
2022-11-05T06:44:47.269Z,33.50
2022-11-05T06:47:15.124Z,32.70
2022-11-05T06:49:43.009Z,33.90
2022-11-05T06:52:11.184Z,33.70
2022-11-05T06:54:40.185Z,33.00
2022-11-05T06:57:12.416Z,33.30
2022-11-05T06:59:40.758Z,34.70
2022-11-05T07:02:12.644Z,33.10
2022-11-05T07:04:40.567Z,32.00
2022-11-05T07:07:08.513Z,33.00
2022-11-05T07:09:42.678Z,29.90
2022-11-05T07:12:10.562Z,30.70
2022-11-05T07:14:38.438Z,30.40
2022-11-05T07:17:06.349Z,31.10
2022-11-05T07:19:34.311Z,30.60
2022-11-05T07:22:02.256Z,30.40
2022-11-05T07:24:30.193Z,31.90
2022-11-05T07:26:58.262Z,32.40
2022-11-05T07:29:26.137Z,32.30
2022-11-05T07:31:54.015Z,31.80
2022-11-05T07:34:21.886Z,30.00
2022-11-05T07:36:49.828Z,30.10
2022-11-05T07:39:17.728Z,30.00
2022-11-05T07:41:45.642Z,30.80
2022-11-05T07:44:14.481Z,30.30
2022-11-05T07:46:42.547Z,32.60
2022-11-05T07:49:10.480Z,34.10
2022-11-05T07:51:38.440Z,37.00
2022-11-05T07:54:06.456Z,40.30
2022-11-05T07:56:34.447Z,38.30
2022-11-05T07:59:02.696Z,34.50
2022-11-05T08:01:30.863Z,33.60
2022-11-05T08:03:58.977Z,32.60
2022-11-05T08:06:26.846Z,33.50
2022-11-05T08:08:54.797Z,33.40
2022-11-05T08:11:22.707Z,33.90
2022-11-05T08:13:50.571Z,34.40
2022-11-05T08:16:18.525Z,32.50
2022-11-05T08:18:46.995Z,30.90
2022-11-05T08:21:15.015Z,30.60
2022-11-05T08:23:43.081Z,28.30
2022-11-05T08:26:10.952Z,31.60
2022-11-05T08:28:39.001Z,27.50
2022-11-05T08:31:06.877Z,26.20
2022-11-05T08:33:35.071Z,27.00
2022-11-05T08:36:04.633Z,27.30
2022-11-05T08:38:32.653Z,24.10
2022-11-05T08:41:00.950Z,23.30
2022-11-05T08:43:28.873Z,23.50
2022-11-05T08:45:56.761Z,22.80
2022-11-05T08:48:24.748Z,24.50
2022-11-05T08:50:52.703Z,24.50
2022-11-05T08:53:20.696Z,24.70
2022-11-05T08:55:50.172Z,25.60
2022-11-05T08:58:20.230Z,24.90
2022-11-05T09:00:49.639Z,28.10
2022-11-05T09:03:18.045Z,26.90
2022-11-05T09:05:46.743Z,28.50
2022-11-05T09:08:17.101Z,27.70
2022-11-05T09:10:47.063Z,27.70
2022-11-05T09:13:19.391Z,27.50
2022-11-05T09:15:49.481Z,28.20
2022-11-05T09:18:19.035Z,28.00
2022-11-05T09:20:47.371Z,28.70
2022-11-05T09:23:16.273Z,28.20
2022-11-05T09:25:44.786Z,27.90
2022-11-05T09:28:18.329Z,29.10
2022-11-05T09:30:48.731Z,30.20
2022-11-05T09:33:19.000Z,31.20
2022-11-05T09:35:47.527Z,30.40
2022-11-05T09:38:15.450Z,32.20
2022-11-05T09:41:01.012Z,32.10
2022-11-05T09:43:44.686Z,31.80
2022-11-05T09:46:19.332Z,32.20
2022-11-05T09:48:52.358Z,29.60
2022-11-05T09:51:24.104Z,29.30
2022-11-05T09:53:53.582Z,27.40
2022-11-05T09:56:26.922Z,24.60
2022-11-05T09:59:00.537Z,22.50
2022-11-05T10:01:35.442Z,23.90
2022-11-05T10:04:13.165Z,23.10
2022-11-05T10:06:48.865Z,21.40
2022-11-05T10:09:28.141Z,21.00
2022-11-05T10:12:06.505Z,21.80
2022-11-05T10:14:40.531Z,20.70
2022-11-05T10:17:25.147Z,20.10
2022-11-05T10:20:20.670Z,20.30
2022-11-05T10:22:58.652Z,20.30
2022-11-05T10:25:32.054Z,19.20
2022-11-05T10:28:00.461Z,19.30
2022-11-05T10:30:28.379Z,19.40
2022-11-05T10:32:59.599Z,20.70
2022-11-05T10:35:30.809Z,20.90
2022-11-05T10:37:58.705Z,21.60
2022-11-05T10:40:38.762Z,21.80
2022-11-05T10:43:15.894Z,22.20
2022-11-05T10:45:59.775Z,22.50
2022-11-05T10:48:34.691Z,22.10
2022-11-05T10:51:07.206Z,23.10
2022-11-05T10:53:38.609Z,23.50
2022-11-05T10:56:32.480Z,24.00
2022-11-05T10:59:00.973Z,25.70
2022-11-05T11:01:30.380Z,24.30
2022-11-05T11:04:32.256Z,22.60
2022-11-05T11:07:03.723Z,22.10
2022-11-05T11:09:35.993Z,21.70
2022-11-05T11:12:21.746Z,20.30
2022-11-05T11:15:12.455Z,21.90
2022-11-05T11:17:40.854Z,21.60
2022-11-05T11:20:17.961Z,21.20
2022-11-05T11:23:13.000Z,20.90
2022-11-05T11:25:47.155Z,19.60
2022-11-05T11:28:20.251Z,20.20
2022-11-05T11:31:04.244Z,20.50
2022-11-05T11:33:33.841Z,19.50
2022-11-05T11:36:02.266Z,20.10
2022-11-05T11:38:33.038Z,21.10
2022-11-05T11:41:30.878Z,19.90
2022-11-05T11:44:11.513Z,20.50
2022-11-05T11:46:40.049Z,23.70
2022-11-05T11:49:32.688Z,22.40
2022-11-05T11:52:04.963Z,57.90
2022-11-05T11:54:35.070Z,124.00
2022-11-05T11:57:03.607Z,54.60
2022-11-05T12:00:01.816Z,27.20
2022-11-05T12:02:28.586Z,30.70
2022-11-05T12:05:10.388Z,22.10
2022-11-05T12:07:44.100Z,21.80
2022-11-05T12:10:18.148Z,22.30
2022-11-05T12:13:01.278Z,21.20
2022-11-05T12:15:52.039Z,22.00
2022-11-05T12:18:27.271Z,21.10
2022-11-05T12:21:07.438Z,18.30
2022-11-05T12:23:44.374Z,17.30
2022-11-05T12:26:22.313Z,17.70
2022-11-05T12:29:17.486Z,17.00
2022-11-05T12:32:01.567Z,17.90
2022-11-05T12:34:35.551Z,16.20
2022-11-05T12:37:24.938Z,16.80
2022-11-05T12:40:14.673Z,16.60
2022-11-05T12:43:12.110Z,18.40
2022-11-05T12:45:45.949Z,19.20
2022-11-05T12:48:57.109Z,19.00
2022-11-05T12:51:51.404Z,19.10
2022-11-05T12:54:36.157Z,19.90
2022-11-05T12:57:05.823Z,19.30
2022-11-05T12:59:43.888Z,19.50
2022-11-05T13:02:33.375Z,20.20
2022-11-05T13:05:16.479Z,20.00
2022-11-05T13:07:54.300Z,19.70
2022-11-05T13:10:28.174Z,21.10
2022-11-05T13:13:02.823Z,19.30
2022-11-05T13:15:40.231Z,20.10
2022-11-05T13:18:16.662Z,20.80
2022-11-05T13:20:51.220Z,21.70
2022-11-05T13:23:27.747Z,21.30
2022-11-05T13:28:43.173Z,23.70
2022-11-05T13:31:15.110Z,22.10
2022-11-05T13:33:46.544Z,22.70
2022-11-05T13:36:44.767Z,22.90
2022-11-05T13:39:26.166Z,24.10
2022-11-05T13:42:13.082Z,24.40
2022-11-05T13:44:41.005Z,25.40
2022-11-05T13:47:30.663Z,24.30
2022-11-05T13:50:20.623Z,24.60
2022-11-05T13:53:26.296Z,25.20
2022-11-05T13:56:03.367Z,24.30
2022-11-05T13:59:10.066Z,25.60
2022-11-05T14:02:18.994Z,24.40
2022-11-05T14:05:00.704Z,25.20
2022-11-05T14:07:33.324Z,24.70
2022-11-05T14:10:16.666Z,26.40
2022-11-05T14:12:49.796Z,25.50
2022-11-05T14:15:22.178Z,24.20
2022-11-05T14:18:04.069Z,24.60
2022-11-05T14:20:31.957Z,24.40
2022-11-05T14:23:24.982Z,26.40
2022-11-05T14:26:22.531Z,23.80
2022-11-05T14:29:11.581Z,22.90
2022-11-05T14:32:07.679Z,24.60
2022-11-05T14:34:43.459Z,23.40
2022-11-05T14:37:11.889Z,24.60
2022-11-05T14:39:40.996Z,25.30
2022-11-05T14:42:18.302Z,23.20
2022-11-05T14:45:24.543Z,25.20
2022-11-05T14:48:05.320Z,25.50
2022-11-05T14:50:39.440Z,24.30
2022-11-05T14:53:37.573Z,24.30
2022-11-05T14:56:19.039Z,24.30
2022-11-05T14:58:46.973Z,26.60
2022-11-05T15:01:15.905Z,26.50
2022-11-05T15:04:00.995Z,25.30
2022-11-05T15:06:36.616Z,26.30
2022-11-05T15:09:16.164Z,28.00
2022-11-05T15:12:04.446Z,29.20
2022-11-05T15:14:42.419Z,27.80
2022-11-05T15:17:21.484Z,28.90
2022-11-05T15:19:50.744Z,28.90
2022-11-05T15:22:29.091Z,31.80
2022-11-05T15:24:57.418Z,31.00
2022-11-05T15:27:46.550Z,32.50
2022-11-05T15:30:23.028Z,31.70
2022-11-05T15:32:51.842Z,30.00
2022-11-05T15:35:23.589Z,29.80
2022-11-05T15:37:57.303Z,30.20
2022-11-05T15:40:33.212Z,28.10
2022-11-05T15:43:19.764Z,29.20
2022-11-05T15:46:04.963Z,29.60
2022-11-05T15:48:33.923Z,30.70
2022-11-05T15:51:02.209Z,32.90
2022-11-05T15:56:34.497Z,37.60
2022-11-05T15:59:16.111Z,37.00
2022-11-05T16:01:51.880Z,31.00
2022-11-05T16:04:24.679Z,30.60
2022-11-05T16:06:56.071Z,29.20
2022-11-05T16:09:25.958Z,27.40
2022-11-05T16:12:11.647Z,28.40
2022-11-05T16:14:40.494Z,28.60
2022-11-05T16:17:20.453Z,28.60
2022-11-05T16:19:49.616Z,27.20
2022-11-05T16:22:18.634Z,27.30
2022-11-05T16:24:47.223Z,29.30
2022-11-05T16:27:19.851Z,28.10
2022-11-05T16:29:56.547Z,29.20
2022-11-05T16:32:31.733Z,29.30
2022-11-05T16:35:03.020Z,30.90
2022-11-05T16:37:39.818Z,30.50
2022-11-05T16:40:15.455Z,32.50
2022-11-05T16:42:45.529Z,31.40
2022-11-05T16:45:15.528Z,32.80
2022-11-05T16:47:44.939Z,31.70
2022-11-05T16:50:15.060Z,30.20
2022-11-05T16:52:45.193Z,32.70
2022-11-05T16:55:14.913Z,29.10
2022-11-05T16:57:46.711Z,30.30
2022-11-05T17:00:16.927Z,29.20
2022-11-05T17:02:45.974Z,29.10
2022-11-05T17:05:30.965Z,30.50
2022-11-05T17:08:00.697Z,31.00
2022-11-05T17:10:28.764Z,29.60
2022-11-05T17:12:57.000Z,34.10
2022-11-05T17:15:29.638Z,32.30
2022-11-05T17:17:59.085Z,31.60
2022-11-05T17:20:36.482Z,33.00
2022-11-05T17:23:19.762Z,32.00
2022-11-05T17:26:09.812Z,33.60
2022-11-05T17:28:38.715Z,32.60
2022-11-05T17:31:09.171Z,32.50
2022-11-05T17:33:37.170Z,33.80
2022-11-05T17:36:10.740Z,32.30
2022-11-05T17:38:39.279Z,33.60
2022-11-05T17:41:15.797Z,33.90
2022-11-05T17:43:44.171Z,32.70
2022-11-05T17:46:14.631Z,35.10
2022-11-05T17:48:42.937Z,32.30
2022-11-05T17:51:15.202Z,28.60
2022-11-05T17:53:44.670Z,28.00
2022-11-05T17:56:22.156Z,26.10
2022-11-05T17:58:55.662Z,25.70
2022-11-05T18:01:30.330Z,26.50
2022-11-05T18:04:02.447Z,26.00
2022-11-05T18:09:05.750Z,25.50
2022-11-05T18:11:35.527Z,25.70
2022-11-05T18:14:03.990Z,26.60
2022-11-05T18:16:32.166Z,27.00
2022-11-05T18:19:00.228Z,27.00
2022-11-05T18:21:28.396Z,27.30
2022-11-05T18:23:56.564Z,28.60
2022-11-05T18:26:24.453Z,27.00
2022-11-05T18:28:52.420Z,26.80
2022-11-05T18:31:21.913Z,27.80
2022-11-05T18:33:50.726Z,28.00
2022-11-05T18:36:21.204Z,27.40
2022-11-05T18:38:49.924Z,27.10
2022-11-05T18:41:19.169Z,27.90
2022-11-05T18:43:47.303Z,28.40
2022-11-05T18:46:43.101Z,27.20
2022-11-05T18:49:04.291Z,27.40
2022-11-05T18:51:32.728Z,27.40
2022-11-05T18:54:00.845Z,26.60
2022-11-05T18:56:28.957Z,27.20
2022-11-05T18:59:22.049Z,27.20
2022-11-05T19:01:45.599Z,26.70
2022-11-05T19:04:14.146Z,26.00
2022-11-05T19:06:42.687Z,26.70
2022-11-05T19:09:12.067Z,27.40
2022-11-05T19:11:41.030Z,27.60
2022-11-05T19:14:09.259Z,26.60
2022-11-05T19:16:37.282Z,29.10
2022-11-05T19:19:08.212Z,27.50
2022-11-05T19:21:36.075Z,28.30
2022-11-05T19:24:04.603Z,28.40
2022-11-05T19:26:32.923Z,28.80
2022-11-05T19:29:03.036Z,27.90
2022-11-05T19:31:32.388Z,28.50
2022-11-05T19:34:03.110Z,28.90
2022-11-05T19:36:32.888Z,29.80
2022-11-05T19:39:04.445Z,29.30
2022-11-05T19:41:32.284Z,28.00
2022-11-05T19:44:01.870Z,30.80
2022-11-05T19:46:31.046Z,31.70
2022-11-05T19:49:02.263Z,33.90
2022-11-05T19:51:31.817Z,33.70
2022-11-05T19:54:01.641Z,34.90
2022-11-05T19:56:32.130Z,32.20
2022-11-05T19:59:00.666Z,34.90
2022-11-05T20:01:30.068Z,34.70
2022-11-05T20:03:59.553Z,34.90
2022-11-05T20:06:32.070Z,34.40
2022-11-05T20:11:54.618Z,36.20
2022-11-05T20:14:24.894Z,34.90
2022-11-05T20:16:53.583Z,35.10
2022-11-05T20:19:22.813Z,35.80
2022-11-05T20:21:50.951Z,33.10
2022-11-05T20:24:24.694Z,34.30
2022-11-05T20:26:55.389Z,32.90
2022-11-05T20:29:29.093Z,32.20
2022-11-05T20:32:02.320Z,32.50
2022-11-05T20:34:32.071Z,35.20
2022-11-05T20:37:00.550Z,33.70
2022-11-05T20:39:28.426Z,33.60
2022-11-05T20:41:56.932Z,33.90
2022-11-05T20:44:24.899Z,32.00
2022-11-05T20:46:52.854Z,35.10
2022-11-05T20:49:25.166Z,33.90
2022-11-05T20:51:54.489Z,34.60
2022-11-05T20:54:22.616Z,33.30
2022-11-05T20:56:51.015Z,31.60
2022-11-05T20:59:19.586Z,32.80
2022-11-05T21:01:47.613Z,35.40
2022-11-05T21:04:15.621Z,33.90
2022-11-05T21:06:43.606Z,34.60
2022-11-05T21:09:11.508Z,33.70
2022-11-05T21:11:57.802Z,35.00
2022-11-05T21:14:25.704Z,35.10
2022-11-05T21:16:53.614Z,33.50
2022-11-05T21:19:23.929Z,33.80
2022-11-05T21:21:51.901Z,34.00
2022-11-05T21:24:19.819Z,33.40
2022-11-05T21:26:50.080Z,32.90
2022-11-05T21:29:19.149Z,33.10
2022-11-05T21:31:47.677Z,32.60
2022-11-05T21:34:16.944Z,33.30
2022-11-05T21:36:45.313Z,35.50
2022-11-05T21:39:14.048Z,33.90
2022-11-05T21:41:42.816Z,34.00
2022-11-05T21:44:11.284Z,35.30
2022-11-05T21:46:39.447Z,34.10
2022-11-05T21:49:07.455Z,34.20
2022-11-05T21:51:53.762Z,36.50
2022-11-05T21:54:40.098Z,33.60
2022-11-05T21:57:33.278Z,33.50
2022-11-05T22:00:03.852Z,34.20
2022-11-05T22:02:32.328Z,35.90
2022-11-05T22:05:00.479Z,36.70
2022-11-05T22:07:37.940Z,35.40
2022-11-05T22:10:15.809Z,34.90
2022-11-05T22:12:44.962Z,37.30
2022-11-05T22:15:13.782Z,35.70
2022-11-05T22:17:46.602Z,34.90
2022-11-05T22:20:15.937Z,33.80
2022-11-05T22:22:44.871Z,35.00
2022-11-05T22:25:14.414Z,31.90
2022-11-05T22:27:44.066Z,31.30
2022-11-05T22:30:13.788Z,33.30
2022-11-05T22:32:42.034Z,29.80
2022-11-05T22:35:10.429Z,32.50
2022-11-05T22:37:38.474Z,31.00
2022-11-05T22:40:06.941Z,31.00
2022-11-05T22:42:34.946Z,32.40
2022-11-05T22:45:03.319Z,30.10
2022-11-05T22:47:31.186Z,31.80
2022-11-05T22:49:59.412Z,30.40
2022-11-05T22:52:27.552Z,29.90
2022-11-05T22:54:55.556Z,29.50
2022-11-05T22:57:23.589Z,29.20
2022-11-05T22:59:51.532Z,27.80
2022-11-05T23:02:19.948Z,26.20
2022-11-05T23:04:49.620Z,28.40
2022-11-05T23:07:36.726Z,28.30
2022-11-05T23:12:53.229Z,27.90
2022-11-05T23:15:39.475Z,27.90
2022-11-05T23:18:28.104Z,29.60
2022-11-05T23:21:17.953Z,29.20
2022-11-05T23:24:05.038Z,29.30
2022-11-05T23:26:52.208Z,29.80
2022-11-05T23:32:09.017Z,29.60
2022-11-05T23:34:37.567Z,34.10
2022-11-05T23:37:25.246Z,33.50
2022-11-05T23:39:53.323Z,32.40
2022-11-05T23:42:40.225Z,33.40
2022-11-05T23:45:27.643Z,36.20
2022-11-05T23:48:14.787Z,32.00
2022-11-05T23:50:46.086Z,32.80
2022-11-05T23:53:14.045Z,32.40
2022-11-05T23:55:42.574Z,31.60
2022-11-05T23:58:11.032Z,29.30
